KLGF/LGF METAR and TAF weather

Enter ICAO airport designator
Station Type Date Time Source
KLGF METAR 2019/10/23 01:58 UTC NOAA

KLGF 230158Z AUTO 33003KT 10SM CLR 29/M02 A2993 RMK AO2 SLP133


Station Type Date Time Source
KLGF Decoded METAR 2019/10/23 01:58 UTC NOAA

Station name not available
Oct 22, 2019 - 09:58 PM EDT / 2019.10.23 0158 UTC
Wind: from the NNW (330 degrees) at 3 MPH (3 KT):0
Visibility: 10 mile(s):0
Sky conditions: clear
Temperature: 84 F (29 C)
Dew Point: 28 F (-2 C)
Relative Humidity: 13%
Pressure (altimeter): 29.93 in. Hg (1013 hPa)
ob: KLGF 230158Z AUTO 33003KT 10SM CLR 29/M02 A2993 RMK AO2 SLP133
cycle: 2

Station Type Date Time Source
KLGF TAF UTC NOAA

Error!

Example: see airport list